sensor_id;sensor_type;location;lat;lon;timestamp;P1;durP1;ratioP1;P2;durP2;ratioP2
16820;SDS011;8527;49.740;6.604;2024-03-29T00:01:59;3.15;;;0.80;;
16820;SDS011;8527;49.740;6.604;2024-03-29T00:06:55;1.95;;;1.13;;
16820;SDS011;8527;49.740;6.604;2024-03-29T00:11:51;2.47;;;1.02;;
16820;SDS011;8527;49.740;6.604;2024-03-29T00:16:52;2.35;;;1.00;;
16820;SDS011;8527;49.740;6.604;2024-03-29T00:21:48;1.63;;;0.90;;
16820;SDS011;8527;49.740;6.604;2024-03-29T00:26:47;6.70;;;1.05;;
16820;SDS011;8527;49.740;6.604;2024-03-29T00:31:43;1.08;;;0.75;;
16820;SDS011;8527;49.740;6.604;2024-03-29T00:36:42;2.15;;;0.77;;
16820;SDS011;8527;49.740;6.604;2024-03-29T00:41:38;3.13;;;0.88;;
16820;SDS011;8527;49.740;6.604;2024-03-29T00:46:35;1.93;;;0.77;;
16820;SDS011;8527;49.740;6.604;2024-03-29T00:51:31;2.63;;;0.93;;
16820;SDS011;8527;49.740;6.604;2024-03-29T00:56:29;3.00;;;1.02;;
16820;SDS011;8527;49.740;6.604;2024-03-29T01:01:27;3.00;;;1.15;;
16820;SDS011;8527;49.740;6.604;2024-03-29T01:06:23;3.78;;;0.98;;
16820;SDS011;8527;49.740;6.604;2024-03-29T01:11:22;2.50;;;1.00;;
16820;SDS011;8527;49.740;6.604;2024-03-29T01:16:20;1.33;;;0.80;;
16820;SDS011;8527;49.740;6.604;2024-03-29T01:21:16;3.03;;;1.30;;
16820;SDS011;8527;49.740;6.604;2024-03-29T01:26:13;2.30;;;1.15;;
16820;SDS011;8527;49.740;6.604;2024-03-29T01:31:09;2.95;;;1.33;;
16820;SDS011;8527;49.740;6.604;2024-03-29T01:36:07;2.13;;;0.98;;
16820;SDS011;8527;49.740;6.604;2024-03-29T01:41:04;4.55;;;0.93;;
16820;SDS011;8527;49.740;6.604;2024-03-29T01:45:59;2.53;;;1.17;;
16820;SDS011;8527;49.740;6.604;2024-03-29T01:50:59;2.13;;;1.00;;
16820;SDS011;8527;49.740;6.604;2024-03-29T01:56:00;0.85;;;0.80;;
16820;SDS011;8527;49.740;6.604;2024-03-29T02:00:57;4.32;;;1.65;;
16820;SDS011;8527;49.740;6.604;2024-03-29T02:05:55;3.03;;;1.90;;
16820;SDS011;8527;49.740;6.604;2024-03-29T02:10:52;3.28;;;1.30;;
16820;SDS011;8527;49.740;6.604;2024-03-29T02:15:50;6.68;;;1.42;;
16820;SDS011;8527;49.740;6.604;2024-03-29T02:20:46;4.00;;;1.88;;
16820;SDS011;8527;49.740;6.604;2024-03-29T02:25:48;3.67;;;1.55;;
16820;SDS011;8527;49.740;6.604;2024-03-29T02:30:44;5.18;;;1.73;;
16820;SDS011;8527;49.740;6.604;2024-03-29T02:35:42;2.10;;;1.13;;
16820;SDS011;8527;49.740;6.604;2024-03-29T02:40:38;3.97;;;1.17;;
16820;SDS011;8527;49.740;6.604;2024-03-29T02:45:43;1.73;;;0.80;;
16820;SDS011;8527;49.740;6.604;2024-03-29T02:50:42;1.38;;;1.02;;
16820;SDS011;8527;49.740;6.604;2024-03-29T02:55:38;2.40;;;1.30;;
16820;SDS011;8527;49.740;6.604;2024-03-29T03:00:36;1.95;;;1.23;;
16820;SDS011;8527;49.740;6.604;2024-03-29T03:05:38;2.75;;;1.20;;
16820;SDS011;8527;49.740;6.604;2024-03-29T03:10:34;2.80;;;1.40;;
16820;SDS011;8527;49.740;6.604;2024-03-29T03:15:48;4.30;;;1.67;;
16820;SDS011;8527;49.740;6.604;2024-03-29T03:20:52;2.90;;;1.67;;
16820;SDS011;8527;49.740;6.604;2024-03-29T03:25:53;3.80;;;1.40;;
16820;SDS011;8527;49.740;6.604;2024-03-29T03:30:51;5.40;;;1.40;;
16820;SDS011;8527;49.740;6.604;2024-03-29T03:35:47;3.10;;;1.00;;
16820;SDS011;8527;49.740;6.604;2024-03-29T03:40:46;1.98;;;1.42;;
16820;SDS011;8527;49.740;6.604;2024-03-29T03:45:50;2.87;;;1.80;;
16820;SDS011;8527;49.740;6.604;2024-03-29T03:50:46;3.55;;;1.02;;
16820;SDS011;8527;49.740;6.604;2024-03-29T03:55:42;3.90;;;1.20;;
16820;SDS011;8527;49.740;6.604;2024-03-29T04:00:41;3.30;;;1.52;;
16820;SDS011;8527;49.740;6.604;2024-03-29T04:05:36;4.60;;;1.77;;
16820;SDS011;8527;49.740;6.604;2024-03-29T04:10:39;3.20;;;1.20;;
16820;SDS011;8527;49.740;6.604;2024-03-29T04:15:38;6.05;;;1.52;;
16820;SDS011;8527;49.740;6.604;2024-03-29T04:20:36;2.47;;;1.40;;
16820;SDS011;8527;49.740;6.604;2024-03-29T04:25:32;2.17;;;1.00;;
16820;SDS011;8527;49.740;6.604;2024-03-29T04:30:28;4.85;;;1.23;;
16820;SDS011;8527;49.740;6.604;2024-03-29T04:35:26;5.05;;;1.63;;
16820;SDS011;8527;49.740;6.604;2024-03-29T04:40:22;3.42;;;1.52;;
16820;SDS011;8527;49.740;6.604;2024-03-29T04:45:19;2.15;;;1.02;;
16820;SDS011;8527;49.740;6.604;2024-03-29T04:50:15;6.22;;;1.75;;
16820;SDS011;8527;49.740;6.604;2024-03-29T04:55:20;1.30;;;1.20;;
16820;SDS011;8527;49.740;6.604;2024-03-29T05:00:16;3.85;;;1.40;;
16820;SDS011;8527;49.740;6.604;2024-03-29T05:05:12;3.50;;;1.15;;
16820;SDS011;8527;49.740;6.604;2024-03-29T05:10:08;3.22;;;1.13;;
16820;SDS011;8527;49.740;6.604;2024-03-29T05:15:08;2.80;;;1.30;;
16820;SDS011;8527;49.740;6.604;2024-03-29T05:20:08;3.22;;;1.23;;
16820;SDS011;8527;49.740;6.604;2024-03-29T05:25:05;5.28;;;1.42;;
16820;SDS011;8527;49.740;6.604;2024-03-29T05:30:01;3.73;;;1.33;;
16820;SDS011;8527;49.740;6.604;2024-03-29T05:35:01;5.03;;;1.52;;
16820;SDS011;8527;49.740;6.604;2024-03-29T05:39:57;5.70;;;1.55;;
16820;SDS011;8527;49.740;6.604;2024-03-29T05:44:54;3.17;;;1.40;;
16820;SDS011;8527;49.740;6.604;2024-03-29T05:49:50;2.58;;;1.38;;
16820;SDS011;8527;49.740;6.604;2024-03-29T05:54:49;2.55;;;1.42;;
16820;SDS011;8527;49.740;6.604;2024-03-29T05:59:44;2.28;;;1.00;;
16820;SDS011;8527;49.740;6.604;2024-03-29T06:04:44;3.47;;;1.23;;
16820;SDS011;8527;49.740;6.604;2024-03-29T06:09:39;3.55;;;1.10;;
16820;SDS011;8527;49.740;6.604;2024-03-29T06:14:38;3.58;;;1.30;;
16820;SDS011;8527;49.740;6.604;2024-03-29T06:19:51;4.32;;;1.67;;
16820;SDS011;8527;49.740;6.604;2024-03-29T06:24:48;2.17;;;1.30;;
16820;SDS011;8527;49.740;6.604;2024-03-29T06:29:47;1.27;;;1.10;;
16820;SDS011;8527;49.740;6.604;2024-03-29T06:34:47;3.08;;;1.48;;
16820;SDS011;8527;49.740;6.604;2024-03-29T06:39:47;3.72;;;2.00;;
16820;SDS011;8527;49.740;6.604;2024-03-29T06:44:51;2.28;;;1.23;;
16820;SDS011;8527;49.740;6.604;2024-03-29T06:49:49;2.53;;;1.13;;
16820;SDS011;8527;49.740;6.604;2024-03-29T06:54:47;1.75;;;1.27;;
16820;SDS011;8527;49.740;6.604;2024-03-29T06:59:43;5.15;;;1.85;;
16820;SDS011;8527;49.740;6.604;2024-03-29T07:04:41;1.98;;;1.30;;
16820;SDS011;8527;49.740;6.604;2024-03-29T07:09:37;3.53;;;1.25;;
16820;SDS011;8527;49.740;6.604;2024-03-29T07:14:33;3.13;;;1.30;;
16820;SDS011;8527;49.740;6.604;2024-03-29T07:19:35;3.75;;;1.30;;
16820;SDS011;8527;49.740;6.604;2024-03-29T07:24:34;1.92;;;1.38;;
16820;SDS011;8527;49.740;6.604;2024-03-29T07:29:29;3.50;;;1.48;;
16820;SDS011;8527;49.740;6.604;2024-03-29T07:34:25;2.63;;;1.20;;
16820;SDS011;8527;49.740;6.604;2024-03-29T07:39:23;3.00;;;1.92;;
16820;SDS011;8527;49.740;6.604;2024-03-29T07:44:24;4.45;;;1.00;;
16820;SDS011;8527;49.740;6.604;2024-03-29T07:49:20;3.97;;;1.17;;
16820;SDS011;8527;49.740;6.604;2024-03-29T07:54:20;3.22;;;1.58;;
16820;SDS011;8527;49.740;6.604;2024-03-29T07:59:16;3.72;;;1.60;;
16820;SDS011;8527;49.740;6.604;2024-03-29T08:04:15;4.38;;;1.67;;
16820;SDS011;8527;49.740;6.604;2024-03-29T08:09:16;2.83;;;1.60;;
16820;SDS011;8527;49.740;6.604;2024-03-29T08:14:12;3.00;;;1.77;;
16820;SDS011;8527;49.740;6.604;2024-03-29T08:19:08;3.42;;;1.65;;
16820;SDS011;8527;49.740;6.604;2024-03-29T08:24:07;3.60;;;1.90;;
16820;SDS011;8527;49.740;6.604;2024-03-29T08:29:05;2.72;;;1.83;;
16820;SDS011;8527;49.740;6.604;2024-03-29T08:34:01;4.15;;;1.88;;
16820;SDS011;8527;49.740;6.604;2024-03-29T08:38:59;2.72;;;1.77;;
16820;SDS011;8527;49.740;6.604;2024-03-29T08:43:58;4.88;;;2.42;;
16820;SDS011;8527;49.740;6.604;2024-03-29T08:48:57;3.63;;;1.67;;
16820;SDS011;8527;49.740;6.604;2024-03-29T08:53:56;6.72;;;2.67;;
16820;SDS011;8527;49.740;6.604;2024-03-29T08:58:52;6.97;;;2.35;;
16820;SDS011;8527;49.740;6.604;2024-03-29T09:03:51;7.70;;;3.33;;
16820;SDS011;8527;49.740;6.604;2024-03-29T09:08:47;7.00;;;3.38;;
16820;SDS011;8527;49.740;6.604;2024-03-29T09:13:43;3.97;;;2.30;;
16820;SDS011;8527;49.740;6.604;2024-03-29T09:18:39;4.20;;;2.20;;
16820;SDS011;8527;49.740;6.604;2024-03-29T09:23:37;9.57;;;2.40;;
16820;SDS011;8527;49.740;6.604;2024-03-29T09:28:35;2.53;;;1.90;;
16820;SDS011;8527;49.740;6.604;2024-03-29T09:33:31;1.83;;;1.73;;
16820;SDS011;8527;49.740;6.604;2024-03-29T09:38:27;4.70;;;2.20;;
16820;SDS011;8527;49.740;6.604;2024-03-29T09:43:25;3.78;;;2.22;;
16820;SDS011;8527;49.740;6.604;2024-03-29T09:48:24;3.28;;;2.30;;
16820;SDS011;8527;49.740;6.604;2024-03-29T09:53:22;4.88;;;3.25;;
16820;SDS011;8527;49.740;6.604;2024-03-29T09:58:21;5.07;;;2.45;;
16820;SDS011;8527;49.740;6.604;2024-03-29T10:03:23;3.53;;;2.03;;
16820;SDS011;8527;49.740;6.604;2024-03-29T10:08:20;6.35;;;2.15;;
16820;SDS011;8527;49.740;6.604;2024-03-29T10:13:17;7.22;;;2.30;;
16820;SDS011;8527;49.740;6.604;2024-03-29T10:18:15;5.90;;;2.25;;
16820;SDS011;8527;49.740;6.604;2024-03-29T10:23:14;5.13;;;2.55;;
16820;SDS011;8527;49.740;6.604;2024-03-29T10:28:09;3.90;;;2.25;;
16820;SDS011;8527;49.740;6.604;2024-03-29T10:33:06;9.13;;;2.47;;
16820;SDS011;8527;49.740;6.604;2024-03-29T10:38:05;3.65;;;2.20;;
16820;SDS011;8527;49.740;6.604;2024-03-29T10:43:01;5.43;;;2.22;;
16820;SDS011;8527;49.740;6.604;2024-03-29T10:47:57;4.77;;;2.30;;
16820;SDS011;8527;49.740;6.604;2024-03-29T10:57:53;3.72;;;2.28;;
16820;SDS011;8527;49.740;6.604;2024-03-29T11:03:01;4.63;;;2.00;;
16820;SDS011;8527;49.740;6.604;2024-03-29T11:08:05;5.60;;;2.38;;
16820;SDS011;8527;49.740;6.604;2024-03-29T11:13:05;4.63;;;2.00;;
16820;SDS011;8527;49.740;6.604;2024-03-29T11:18:07;2.95;;;1.80;;
16820;SDS011;8527;49.740;6.604;2024-03-29T11:23:08;3.92;;;2.03;;
16820;SDS011;8527;49.740;6.604;2024-03-29T11:28:09;3.38;;;1.88;;
16820;SDS011;8527;49.740;6.604;2024-03-29T11:33:06;4.60;;;1.90;;
16820;SDS011;8527;49.740;6.604;2024-03-29T11:38:02;3.25;;;2.30;;
16820;SDS011;8527;49.740;6.604;2024-03-29T11:43:00;4.85;;;2.13;;
16820;SDS011;8527;49.740;6.604;2024-03-29T11:47:59;6.53;;;2.30;;
16820;SDS011;8527;49.740;6.604;2024-03-29T11:58:00;2.20;;;1.70;;
16820;SDS011;8527;49.740;6.604;2024-03-29T12:02:59;2.90;;;1.50;;
16820;SDS011;8527;49.740;6.604;2024-03-29T12:07:55;3.67;;;2.00;;
16820;SDS011;8527;49.740;6.604;2024-03-29T12:12:52;5.82;;;1.65;;
16820;SDS011;8527;49.740;6.604;2024-03-29T12:17:54;2.42;;;1.50;;
16820;SDS011;8527;49.740;6.604;2024-03-29T12:22:53;1.55;;;1.15;;
16820;SDS011;8527;49.740;6.604;2024-03-29T12:27:49;2.45;;;1.38;;
16820;SDS011;8527;49.740;6.604;2024-03-29T12:32:45;3.43;;;2.53;;
16820;SDS011;8527;49.740;6.604;2024-03-29T12:37:47;4.38;;;2.42;;
16820;SDS011;8527;49.740;6.604;2024-03-29T12:42:45;5.43;;;2.42;;
16820;SDS011;8527;49.740;6.604;2024-03-29T12:47:46;1.88;;;1.25;;
16820;SDS011;8527;49.740;6.604;2024-03-29T12:52:43;4.85;;;1.80;;
16820;SDS011;8527;49.740;6.604;2024-03-29T12:57:42;3.38;;;1.98;;
16820;SDS011;8527;49.740;6.604;2024-03-29T13:02:44;3.15;;;2.08;;
16820;SDS011;8527;49.740;6.604;2024-03-29T13:07:41;2.05;;;1.85;;
16820;SDS011;8527;49.740;6.604;2024-03-29T13:12:37;8.63;;;2.00;;
16820;SDS011;8527;49.740;6.604;2024-03-29T13:17:33;3.80;;;1.90;;
16820;SDS011;8527;49.740;6.604;2024-03-29T13:22:32;3.60;;;1.42;;
16820;SDS011;8527;49.740;6.604;2024-03-29T13:27:28;4.10;;;1.60;;
16820;SDS011;8527;49.740;6.604;2024-03-29T13:32:24;3.87;;;1.70;;
16820;SDS011;8527;49.740;6.604;2024-03-29T13:37:21;5.68;;;2.60;;
16820;SDS011;8527;49.740;6.604;2024-03-29T13:42:19;4.05;;;1.73;;
16820;SDS011;8527;49.740;6.604;2024-03-29T13:47:15;5.22;;;2.60;;
16820;SDS011;8527;49.740;6.604;2024-03-29T13:52:12;4.82;;;1.98;;
16820;SDS011;8527;49.740;6.604;2024-03-29T13:57:08;5.30;;;2.08;;
16820;SDS011;8527;49.740;6.604;2024-03-29T14:02:10;4.60;;;2.10;;
16820;SDS011;8527;49.740;6.604;2024-03-29T14:07:07;6.10;;;2.10;;
16820;SDS011;8527;49.740;6.604;2024-03-29T14:17:00;6.45;;;2.33;;
16820;SDS011;8527;49.740;6.604;2024-03-29T14:22:01;7.78;;;2.97;;
16820;SDS011;8527;49.740;6.604;2024-03-29T14:26:58;6.90;;;2.63;;
16820;SDS011;8527;49.740;6.604;2024-03-29T14:31:54;4.90;;;2.00;;
16820;SDS011;8527;49.740;6.604;2024-03-29T14:36:50;4.45;;;2.55;;
16820;SDS011;8527;49.740;6.604;2024-03-29T14:41:49;4.95;;;2.90;;
16820;SDS011;8527;49.740;6.604;2024-03-29T14:46:45;10.07;;;2.50;;
16820;SDS011;8527;49.740;6.604;2024-03-29T14:51:43;4.70;;;2.40;;
16820;SDS011;8527;49.740;6.604;2024-03-29T14:56:42;2.97;;;1.83;;
16820;SDS011;8527;49.740;6.604;2024-03-29T15:01:41;4.93;;;2.58;;
16820;SDS011;8527;49.740;6.604;2024-03-29T15:06:40;2.65;;;1.85;;
16820;SDS011;8527;49.740;6.604;2024-03-29T15:11:36;3.45;;;2.00;;
16820;SDS011;8527;49.740;6.604;2024-03-29T15:16:35;6.82;;;2.88;;
16820;SDS011;8527;49.740;6.604;2024-03-29T15:21:36;8.95;;;3.70;;
16820;SDS011;8527;49.740;6.604;2024-03-29T15:26:33;19.48;;;9.07;;
16820;SDS011;8527;49.740;6.604;2024-03-29T15:31:31;5.28;;;3.30;;
16820;SDS011;8527;49.740;6.604;2024-03-29T15:36:30;15.73;;;8.07;;
16820;SDS011;8527;49.740;6.604;2024-03-29T15:41:30;11.93;;;4.70;;
16820;SDS011;8527;49.740;6.604;2024-03-29T15:46:26;7.20;;;3.60;;
16820;SDS011;8527;49.740;6.604;2024-03-29T15:51:22;8.33;;;3.90;;
16820;SDS011;8527;49.740;6.604;2024-03-29T15:56:19;17.00;;;4.40;;
16820;SDS011;8527;49.740;6.604;2024-03-29T16:01:17;12.23;;;4.70;;
16820;SDS011;8527;49.740;6.604;2024-03-29T16:06:16;15.50;;;5.57;;
16820;SDS011;8527;49.740;6.604;2024-03-29T16:11:12;10.82;;;4.80;;
16820;SDS011;8527;49.740;6.604;2024-03-29T16:16:07;11.60;;;3.97;;
16820;SDS011;8527;49.740;6.604;2024-03-29T16:21:06;13.30;;;6.38;;
16820;SDS011;8527;49.740;6.604;2024-03-29T16:26:02;10.32;;;5.47;;
16820;SDS011;8527;49.740;6.604;2024-03-29T16:30:58;29.00;;;13.48;;
16820;SDS011;8527;49.740;6.604;2024-03-29T16:35:54;11.82;;;5.18;;
16820;SDS011;8527;49.740;6.604;2024-03-29T16:40:52;15.93;;;6.55;;
16820;SDS011;8527;49.740;6.604;2024-03-29T16:45:48;12.02;;;3.75;;
16820;SDS011;8527;49.740;6.604;2024-03-29T16:50:44;8.40;;;2.80;;
16820;SDS011;8527;49.740;6.604;2024-03-29T16:55:41;11.77;;;5.15;;
16820;SDS011;8527;49.740;6.604;2024-03-29T17:00:40;13.50;;;4.75;;
16820;SDS011;8527;49.740;6.604;2024-03-29T17:05:36;24.98;;;7.28;;
16820;SDS011;8527;49.740;6.604;2024-03-29T17:10:32;11.43;;;4.72;;
16820;SDS011;8527;49.740;6.604;2024-03-29T17:15:28;7.47;;;3.08;;
16820;SDS011;8527;49.740;6.604;2024-03-29T17:20:26;8.23;;;3.45;;
16820;SDS011;8527;49.740;6.604;2024-03-29T17:25:22;14.07;;;5.20;;
16820;SDS011;8527;49.740;6.604;2024-03-29T17:30:18;6.72;;;3.13;;
16820;SDS011;8527;49.740;6.604;2024-03-29T17:35:14;12.55;;;5.88;;
16820;SDS011;8527;49.740;6.604;2024-03-29T17:40:12;11.18;;;4.53;;
16820;SDS011;8527;49.740;6.604;2024-03-29T17:45:09;9.43;;;3.28;;
16820;SDS011;8527;49.740;6.604;2024-03-29T17:50:08;27.92;;;8.85;;
16820;SDS011;8527;49.740;6.604;2024-03-29T17:55:04;16.90;;;7.72;;
16820;SDS011;8527;49.740;6.604;2024-03-29T18:00:03;12.33;;;5.17;;
16820;SDS011;8527;49.740;6.604;2024-03-29T18:05:01;12.20;;;4.82;;
16820;SDS011;8527;49.740;6.604;2024-03-29T18:09:59;11.35;;;6.13;;
16820;SDS011;8527;49.740;6.604;2024-03-29T18:14:58;11.93;;;5.50;;
16820;SDS011;8527;49.740;6.604;2024-03-29T18:19:56;19.92;;;6.15;;
16820;SDS011;8527;49.740;6.604;2024-03-29T18:24:52;14.98;;;8.15;;
16820;SDS011;8527;49.740;6.604;2024-03-29T18:29:48;15.32;;;7.50;;
16820;SDS011;8527;49.740;6.604;2024-03-29T18:34:44;28.85;;;9.85;;
16820;SDS011;8527;49.740;6.604;2024-03-29T18:39:43;17.60;;;8.43;;
16820;SDS011;8527;49.740;6.604;2024-03-29T18:44:39;18.58;;;8.68;;
16820;SDS011;8527;49.740;6.604;2024-03-29T18:49:35;18.60;;;9.17;;
16820;SDS011;8527;49.740;6.604;2024-03-29T18:54:31;16.13;;;7.75;;
16820;SDS011;8527;49.740;6.604;2024-03-29T18:59:30;21.77;;;10.30;;
16820;SDS011;8527;49.740;6.604;2024-03-29T19:04:26;17.70;;;7.47;;
16820;SDS011;8527;49.740;6.604;2024-03-29T19:09:23;17.83;;;7.20;;
16820;SDS011;8527;49.740;6.604;2024-03-29T19:14:19;12.65;;;6.22;;
16820;SDS011;8527;49.740;6.604;2024-03-29T19:19:18;30.52;;;12.20;;
16820;SDS011;8527;49.740;6.604;2024-03-29T19:24:17;20.33;;;8.13;;
16820;SDS011;8527;49.740;6.604;2024-03-29T19:29:13;26.13;;;11.07;;
16820;SDS011;8527;49.740;6.604;2024-03-29T19:34:09;21.73;;;9.05;;
16820;SDS011;8527;49.740;6.604;2024-03-29T19:39:07;32.47;;;13.52;;
16820;SDS011;8527;49.740;6.604;2024-03-29T19:44:04;25.90;;;11.32;;
16820;SDS011;8527;49.740;6.604;2024-03-29T19:49:03;16.25;;;9.40;;
16820;SDS011;8527;49.740;6.604;2024-03-29T19:53:59;17.15;;;7.90;;
16820;SDS011;8527;49.740;6.604;2024-03-29T19:58:57;17.27;;;7.20;;
16820;SDS011;8527;49.740;6.604;2024-03-29T20:03:53;14.80;;;7.28;;
16820;SDS011;8527;49.740;6.604;2024-03-29T20:08:49;20.05;;;8.45;;
16820;SDS011;8527;49.740;6.604;2024-03-29T20:13:45;24.35;;;10.57;;
16820;SDS011;8527;49.740;6.604;2024-03-29T20:18:46;19.02;;;9.73;;
16820;SDS011;8527;49.740;6.604;2024-03-29T20:23:42;26.02;;;7.95;;
16820;SDS011;8527;49.740;6.604;2024-03-29T20:28:38;15.57;;;7.37;;
16820;SDS011;8527;49.740;6.604;2024-03-29T20:33:34;15.48;;;6.28;;
16820;SDS011;8527;49.740;6.604;2024-03-29T20:38:33;13.27;;;7.05;;
16820;SDS011;8527;49.740;6.604;2024-03-29T20:43:29;14.75;;;6.57;;
16820;SDS011;8527;49.740;6.604;2024-03-29T20:48:27;19.23;;;6.30;;
16820;SDS011;8527;49.740;6.604;2024-03-29T20:53:23;12.85;;;6.60;;
16820;SDS011;8527;49.740;6.604;2024-03-29T20:58:21;13.00;;;6.00;;
16820;SDS011;8527;49.740;6.604;2024-03-29T21:03:17;15.80;;;7.47;;
16820;SDS011;8527;49.740;6.604;2024-03-29T21:08:28;16.67;;;7.45;;
16820;SDS011;8527;49.740;6.604;2024-03-29T21:13:27;15.02;;;5.68;;
16820;SDS011;8527;49.740;6.604;2024-03-29T21:18:23;11.90;;;5.40;;
16820;SDS011;8527;49.740;6.604;2024-03-29T21:23:19;15.05;;;6.22;;
16820;SDS011;8527;49.740;6.604;2024-03-29T21:28:15;14.63;;;6.60;;
16820;SDS011;8527;49.740;6.604;2024-03-29T21:33:13;19.60;;;8.88;;
16820;SDS011;8527;49.740;6.604;2024-03-29T21:38:09;14.25;;;5.93;;
16820;SDS011;8527;49.740;6.604;2024-03-29T21:43:05;10.18;;;4.68;;
16820;SDS011;8527;49.740;6.604;2024-03-29T21:48:01;14.40;;;6.07;;
16820;SDS011;8527;49.740;6.604;2024-03-29T21:52:59;14.57;;;5.47;;
16820;SDS011;8527;49.740;6.604;2024-03-29T21:57:55;12.23;;;5.63;;
16820;SDS011;8527;49.740;6.604;2024-03-29T22:02:51;10.65;;;5.32;;
16820;SDS011;8527;49.740;6.604;2024-03-29T22:07:50;12.60;;;5.47;;
16820;SDS011;8527;49.740;6.604;2024-03-29T22:12:51;15.25;;;6.07;;
16820;SDS011;8527;49.740;6.604;2024-03-29T22:17:48;13.75;;;6.93;;
16820;SDS011;8527;49.740;6.604;2024-03-29T22:22:53;12.95;;;5.85;;
16820;SDS011;8527;49.740;6.604;2024-03-29T22:27:49;16.10;;;6.90;;
16820;SDS011;8527;49.740;6.604;2024-03-29T22:32:47;12.05;;;6.18;;
16820;SDS011;8527;49.740;6.604;2024-03-29T22:37:43;12.32;;;5.95;;
16820;SDS011;8527;49.740;6.604;2024-03-29T22:42:39;13.52;;;6.55;;
16820;SDS011;8527;49.740;6.604;2024-03-29T22:47:40;15.32;;;6.47;;
16820;SDS011;8527;49.740;6.604;2024-03-29T22:52:36;19.08;;;6.78;;
16820;SDS011;8527;49.740;6.604;2024-03-29T22:57:33;14.38;;;7.47;;
16820;SDS011;8527;49.740;6.604;2024-03-29T23:02:28;12.38;;;6.43;;
16820;SDS011;8527;49.740;6.604;2024-03-29T23:07:27;14.55;;;7.57;;
16820;SDS011;8527;49.740;6.604;2024-03-29T23:12:23;17.48;;;7.80;;
16820;SDS011;8527;49.740;6.604;2024-03-29T23:17:19;16.42;;;6.35;;
16820;SDS011;8527;49.740;6.604;2024-03-29T23:22:15;15.27;;;7.43;;
16820;SDS011;8527;49.740;6.604;2024-03-29T23:27:14;13.40;;;6.82;;
16820;SDS011;8527;49.740;6.604;2024-03-29T23:32:10;18.77;;;7.53;;
16820;SDS011;8527;49.740;6.604;2024-03-29T23:37:06;15.00;;;7.20;;
16820;SDS011;8527;49.740;6.604;2024-03-29T23:42:05;18.67;;;7.57;;
16820;SDS011;8527;49.740;6.604;2024-03-29T23:47:04;18.10;;;7.15;;
16820;SDS011;8527;49.740;6.604;2024-03-29T23:52:00;32.78;;;9.43;;
16820;SDS011;8527;49.740;6.604;2024-03-29T23:56:56;22.33;;;8.38;;
